Terminal Aerodrome Forecast
Issued by NWS Los Angeles, CA

Home | Current Version | Previous Version | Text Only | Print | Product List | Glossary On
Versions: 1 2 3 4 5 6 7 8 9 10 11 12 13 14 15 16 17 18 19 20 21 22 23
000
FTUS46 KLOX 200400 AAC
TAFSMX
TAF AMD
KSMX 200409Z 2004/2024 32007KT P6SM OVC022
     FM200700 VRB03KT P6SM OVC015
     FM202000 30010KT P6SM SCT022=

USA.gov is the U.S. government's official web portal to all federal, state and local government web resources and services.